createdAt,value
2023-04-01T00:01:04.512Z,2.25
2023-04-01T00:06:09.037Z,1.75
2023-04-01T00:11:11.838Z,3.00
2023-04-01T00:16:21.616Z,1.00
2023-04-01T00:21:27.146Z,1.75
2023-04-01T00:26:29.886Z,3.00
2023-04-01T00:31:32.692Z,2.25
2023-04-01T00:36:36.871Z,1.50
2023-04-01T00:41:40.150Z,1.25
2023-04-01T00:46:42.879Z,2.25
2023-04-01T00:51:49.228Z,3.00
2023-04-01T00:56:57.120Z,2.00
2023-04-01T01:02:00.172Z,2.00
2023-04-01T01:07:20.034Z,1.00
2023-04-01T01:12:27.995Z,1.75
2023-04-01T01:17:45.434Z,1.25
2023-04-01T01:23:03.277Z,0.75
2023-04-01T01:28:26.745Z,2.00
2023-04-01T01:33:50.493Z,2.00
2023-04-01T01:38:56.260Z,2.00
2023-04-01T01:44:01.699Z,1.75
2023-04-01T01:49:07.192Z,3.25
2023-04-01T01:54:14.970Z,0.00
2023-04-01T01:59:22.889Z,2.00
2023-04-01T02:04:25.952Z,1.75
2023-04-01T02:09:31.000Z,1.00
2023-04-01T02:14:41.887Z,0.25
2023-04-01T02:19:50.718Z,0.25
2023-04-01T02:24:59.434Z,1.25
2023-04-01T02:30:02.601Z,1.00
2023-04-01T02:35:09.088Z,1.75
2023-04-01T02:40:16.237Z,1.00
2023-04-01T02:45:19.186Z,1.00
2023-04-01T02:50:22.500Z,1.00
2023-04-01T02:55:26.786Z,0.50
2023-04-01T03:00:29.792Z,0.75
2023-04-01T03:05:32.918Z,1.25
2023-04-01T03:10:37.269Z,2.00
2023-04-01T03:15:40.526Z,2.00
2023-04-01T03:20:43.309Z,2.00
2023-04-01T03:25:48.419Z,2.00
2023-04-01T03:30:51.987Z,1.00
2023-04-01T03:35:55.301Z,1.75
2023-04-01T03:40:59.498Z,3.00
2023-04-01T03:46:02.658Z,1.00
2023-04-01T03:51:09.559Z,1.00
2023-04-01T03:56:14.269Z,0.75
2023-04-01T04:01:21.620Z,2.00
2023-04-01T04:06:27.367Z,1.50
2023-04-01T04:11:33.275Z,1.00
2023-04-01T04:16:38.469Z,0.00
2023-04-01T04:21:42.267Z,0.25
2023-04-01T04:26:46.841Z,0.00
2023-04-01T04:31:50.112Z,2.00
2023-04-01T04:36:53.000Z,0.50
2023-04-01T04:41:58.653Z,1.00
2023-04-01T04:47:01.514Z,1.00
2023-04-01T04:52:04.532Z,1.00
2023-04-01T04:57:08.747Z,0.00
2023-04-01T05:02:18.566Z,1.00
2023-04-01T05:07:21.329Z,0.00
2023-04-01T05:12:25.876Z,1.50
2023-04-01T05:17:37.031Z,0.00
2023-04-01T05:22:40.641Z,0.50
2023-04-01T05:27:44.812Z,0.00
2023-04-01T05:32:47.609Z,0.75
2023-04-01T05:37:50.549Z,0.75
2023-04-01T05:42:56.145Z,1.00
2023-04-01T05:47:59.035Z,1.25
2023-04-01T05:53:01.880Z,1.25
2023-04-01T05:58:06.559Z,0.75
2023-04-01T06:03:10.829Z,1.00
2023-04-01T06:08:17.597Z,3.00
2023-04-01T06:13:37.627Z,0.00
2023-04-01T06:18:54.355Z,0.50
2023-04-01T06:24:13.938Z,0.00
2023-04-01T06:29:49.601Z,1.75
2023-04-01T06:35:19.606Z,0.00
2023-04-01T06:41:00.054Z,0.00
2023-04-01T06:46:13.258Z,0.00
2023-04-01T06:51:46.907Z,0.75
2023-04-01T06:57:25.508Z,0.75
2023-04-01T07:02:38.966Z,1.00
2023-04-01T07:07:46.101Z,0.00
2023-04-01T07:12:54.154Z,0.00
2023-04-01T07:18:21.123Z,0.50
2023-04-01T07:23:26.584Z,0.00
2023-04-01T07:28:55.985Z,0.25
2023-04-01T07:34:21.459Z,0.00
2023-04-01T07:39:35.989Z,54.80
2023-04-01T07:45:05.900Z,170.40
2023-04-01T07:50:20.465Z,260.33
2023-04-01T07:55:28.382Z,289.67
2023-04-01T08:00:39.385Z,301.50
2023-04-01T08:05:59.200Z,179.80
2023-04-01T08:11:14.970Z,181.60
2023-04-01T08:16:44.801Z,164.40
2023-04-01T08:21:58.775Z,152.80
2023-04-01T08:27:08.264Z,145.60
2023-04-01T08:32:15.098Z,140.00
2023-04-01T08:37:24.008Z,132.80
2023-04-01T08:42:47.521Z,134.20
2023-04-01T08:48:29.960Z,132.80
2023-04-01T08:53:56.430Z,113.20
2023-04-01T08:59:29.326Z,104.00
2023-04-01T09:04:49.908Z,104.60
2023-04-01T09:10:24.952Z,103.40
2023-04-01T09:15:58.356Z,106.80
2023-04-01T09:21:26.843Z,102.00
2023-04-01T09:26:53.635Z,104.00
2023-04-01T09:32:20.963Z,101.60
2023-04-01T09:37:37.198Z,97.00
2023-04-01T09:43:07.507Z,101.40
2023-04-01T09:48:27.043Z,103.00
2023-04-01T09:53:46.448Z,93.40
2023-04-01T09:59:26.405Z,96.00
2023-04-01T10:05:29.993Z,94.40
2023-04-01T10:10:58.022Z,91.20
2023-04-01T10:16:25.415Z,91.40
2023-04-01T10:21:59.668Z,88.40
2023-04-01T10:27:14.335Z,91.60
2023-04-01T10:33:31.241Z,83.40
2023-04-01T10:39:03.906Z,78.20
2023-04-01T10:44:46.208Z,78.80
2023-04-01T10:50:19.309Z,78.60
2023-04-01T10:56:01.453Z,70.80
2023-04-01T11:02:03.969Z,69.60
2023-04-01T11:08:25.203Z,58.20
2023-04-01T11:14:16.939Z,56.00
2023-04-01T11:20:09.337Z,52.80
2023-04-01T11:25:31.705Z,43.40
2023-04-01T11:31:14.165Z,46.40
2023-04-01T11:36:30.481Z,42.00
2023-04-01T11:41:41.821Z,43.60
2023-04-01T11:47:30.763Z,41.00
2023-04-01T11:52:53.464Z,38.80
2023-04-01T11:58:15.904Z,34.40
2023-04-01T12:03:44.309Z,32.80
2023-04-01T12:08:58.018Z,35.00
2023-04-01T12:14:09.057Z,33.40
2023-04-01T12:19:20.969Z,30.00
2023-04-01T12:24:49.229Z,27.50
2023-04-01T12:30:11.423Z,25.50
2023-04-01T12:35:25.768Z,21.25
2023-04-01T12:40:47.844Z,23.75
2023-04-01T12:46:01.573Z,22.75
2023-04-01T12:51:28.968Z,18.75
2023-04-01T12:56:45.368Z,16.50
2023-04-01T13:02:13.368Z,16.75
2023-04-01T13:07:31.343Z,16.00
2023-04-01T13:12:47.131Z,16.25
2023-04-01T13:17:55.543Z,14.00
2023-04-01T13:23:12.968Z,13.25
2023-04-01T13:28:22.729Z,10.25
2023-04-01T13:33:33.796Z,10.00
2023-04-01T13:39:15.296Z,12.50
2023-04-01T13:44:25.104Z,11.75
2023-04-01T13:49:43.959Z,13.75
2023-04-01T13:55:14.008Z,12.00
2023-04-01T14:00:29.645Z,9.75
2023-04-01T14:05:52.775Z,8.50
2023-04-01T14:11:08.700Z,7.75
2023-04-01T14:17:01.009Z,9.00
2023-04-01T14:22:15.590Z,7.50
2023-04-01T14:27:33.705Z,7.50
2023-04-01T14:32:47.606Z,10.00
2023-04-01T14:38:23.569Z,9.00
2023-04-01T14:43:56.635Z,6.50
2023-04-01T14:49:06.201Z,5.50
2023-04-01T14:54:23.343Z,7.50
2023-04-01T14:59:30.995Z,5.25
2023-04-01T15:04:52.630Z,4.75
2023-04-01T15:10:05.254Z,7.00
2023-04-01T15:15:21.810Z,5.00
2023-04-01T15:20:47.616Z,4.75
2023-04-01T15:26:12.557Z,5.00
2023-04-01T15:31:21.373Z,4.00
2023-04-01T15:36:35.428Z,2.75
2023-04-01T15:41:47.082Z,4.25
2023-04-01T15:46:51.967Z,4.33
2023-04-01T15:52:07.776Z,4.00
2023-04-01T15:57:20.937Z,4.25
2023-04-01T16:02:32.363Z,4.50
2023-04-01T16:08:04.746Z,4.25
2023-04-01T16:13:26.641Z,3.00
2023-04-01T16:19:05.282Z,3.50
2023-04-01T16:24:19.644Z,3.25
2023-04-01T16:29:32.861Z,3.25
2023-04-01T16:34:40.338Z,3.75
2023-04-01T16:39:54.295Z,4.25
2023-04-01T16:45:08.579Z,5.25
2023-04-01T16:50:21.485Z,3.25
2023-04-01T16:55:36.116Z,4.00
2023-04-01T17:00:43.054Z,3.00
2023-04-01T17:05:57.890Z,3.75
2023-04-01T17:11:08.631Z,3.75
2023-04-01T17:16:27.315Z,3.00
2023-04-01T17:21:49.200Z,2.00
2023-04-01T17:27:01.764Z,3.00
2023-04-01T17:32:13.758Z,3.00
2023-04-01T17:37:33.652Z,3.00
2023-04-01T17:42:44.563Z,4.00
2023-04-01T17:48:01.194Z,4.25
2023-04-01T17:53:23.927Z,3.25
2023-04-01T17:58:32.991Z,2.00
2023-04-01T18:03:56.629Z,3.00
2023-04-01T18:09:02.482Z,2.00
2023-04-01T18:14:36.541Z,4.00
2023-04-01T18:19:51.519Z,3.00
2023-04-01T18:25:01.299Z,3.25
2023-04-01T18:30:15.576Z,2.00
2023-04-01T18:35:36.572Z,2.50
2023-04-01T18:40:44.359Z,4.50
2023-04-01T18:45:56.149Z,2.00
2023-04-01T18:51:03.151Z,2.25
2023-04-01T18:56:08.443Z,2.00
2023-04-01T19:01:24.036Z,3.75
2023-04-01T19:06:33.914Z,2.25
2023-04-01T19:11:50.612Z,1.50
2023-04-01T19:17:05.828Z,2.00
2023-04-01T19:22:21.661Z,2.25
2023-04-01T19:27:33.234Z,3.25
2023-04-01T19:32:48.068Z,2.25
2023-04-01T19:37:56.647Z,3.00
2023-04-01T19:43:06.784Z,2.75
2023-04-01T19:48:33.676Z,2.25
2023-04-01T19:53:43.956Z,1.25
2023-04-01T19:58:53.305Z,0.50
2023-04-01T20:04:04.947Z,2.25
2023-04-01T20:09:36.326Z,2.50
2023-04-01T20:14:47.302Z,2.75
2023-04-01T20:19:59.749Z,2.00
2023-04-01T20:25:12.626Z,3.00
2023-04-01T20:30:42.738Z,1.50
2023-04-01T20:36:00.883Z,1.00
2023-04-01T20:41:12.444Z,1.75
2023-04-01T20:46:22.465Z,2.75
2023-04-01T20:51:31.841Z,1.50
2023-04-01T20:56:57.680Z,1.00
2023-04-01T21:02:15.398Z,0.50
2023-04-01T21:07:34.411Z,2.00
2023-04-01T21:12:49.332Z,1.75
2023-04-01T21:18:02.590Z,0.00
2023-04-01T21:23:21.947Z,1.75
2023-04-01T21:28:36.490Z,3.00
2023-04-01T21:34:09.689Z,1.00
2023-04-01T21:39:37.142Z,1.75
2023-04-01T21:44:57.053Z,1.00
2023-04-01T21:50:25.375Z,1.25
2023-04-01T21:56:05.248Z,1.00
2023-04-01T22:01:25.183Z,1.50
2023-04-01T22:06:36.515Z,1.00
2023-04-01T22:12:02.384Z,1.00
2023-04-01T22:17:17.938Z,1.00
2023-04-01T22:22:25.440Z,0.00
2023-04-01T22:27:36.523Z,0.50
2023-04-01T22:32:45.682Z,1.25
2023-04-01T22:38:00.218Z,1.25
2023-04-01T22:43:10.145Z,1.00
2023-04-01T22:48:20.375Z,1.00
2023-04-01T22:53:34.609Z,0.25
2023-04-01T22:58:44.655Z,1.00
2023-04-01T23:03:50.499Z,1.00
2023-04-01T23:09:03.575Z,2.75
2023-04-01T23:14:39.074Z,1.50
2023-04-01T23:19:50.885Z,1.00
2023-04-01T23:25:01.385Z,1.00
2023-04-01T23:30:06.914Z,1.00
2023-04-01T23:35:18.250Z,1.00
2023-04-01T23:40:21.435Z,1.00
2023-04-01T23:45:25.677Z,1.00
2023-04-01T23:50:29.601Z,0.50
2023-04-01T23:55:34.520Z,1.00
